sensor_id;sensor_type;location;lat;lon;timestamp;P1;durP1;ratioP1;P2;durP2;ratioP2
14377;SDS011;7272;53.668;9.578;2023-04-21T00:00:53;11.17;;;10.07;;
14377;SDS011;7272;53.668;9.578;2023-04-21T00:03:54;11.43;;;9.80;;
14377;SDS011;7272;53.668;9.578;2023-04-21T00:06:55;13.63;;;11.45;;
14377;SDS011;7272;53.668;9.578;2023-04-21T00:09:57;13.27;;;11.88;;
14377;SDS011;7272;53.668;9.578;2023-04-21T00:12:58;13.20;;;10.87;;
14377;SDS011;7272;53.668;9.578;2023-04-21T00:15:59;10.03;;;9.07;;
14377;SDS011;7272;53.668;9.578;2023-04-21T00:19:01;11.73;;;9.97;;
14377;SDS011;7272;53.668;9.578;2023-04-21T00:22:06;11.37;;;10.00;;
14377;SDS011;7272;53.668;9.578;2023-04-21T00:25:11;11.23;;;10.07;;
14377;SDS011;7272;53.668;9.578;2023-04-21T00:28:14;13.97;;;10.57;;
14377;SDS011;7272;53.668;9.578;2023-04-21T00:31:15;13.37;;;11.00;;
14377;SDS011;7272;53.668;9.578;2023-04-21T00:34:16;12.47;;;11.00;;
14377;SDS011;7272;53.668;9.578;2023-04-21T00:37:19;13.13;;;11.03;;
14377;SDS011;7272;53.668;9.578;2023-04-21T00:40:21;11.23;;;10.03;;
14377;SDS011;7272;53.668;9.578;2023-04-21T00:43:22;15.13;;;11.07;;
14377;SDS011;7272;53.668;9.578;2023-04-21T00:46:27;12.03;;;10.83;;
14377;SDS011;7272;53.668;9.578;2023-04-21T00:49:29;12.43;;;11.07;;
14377;SDS011;7272;53.668;9.578;2023-04-21T00:52:30;10.97;;;9.87;;
14377;SDS011;7272;53.668;9.578;2023-04-21T00:55:32;12.17;;;10.77;;
14377;SDS011;7272;53.668;9.578;2023-04-21T00:58:33;11.30;;;10.20;;
14377;SDS011;7272;53.668;9.578;2023-04-21T01:01:36;13.38;;;12.02;;
14377;SDS011;7272;53.668;9.578;2023-04-21T01:04:39;13.55;;;12.15;;
14377;SDS011;7272;53.668;9.578;2023-04-21T01:07:40;14.10;;;10.60;;
14377;SDS011;7272;53.668;9.578;2023-04-21T01:10:42;11.77;;;10.13;;
14377;SDS011;7272;53.668;9.578;2023-04-21T01:13:43;12.00;;;10.57;;
14377;SDS011;7272;53.668;9.578;2023-04-21T01:16:45;15.20;;;10.63;;
14377;SDS011;7272;53.668;9.578;2023-04-21T01:19:46;11.63;;;9.70;;
14377;SDS011;7272;53.668;9.578;2023-04-21T01:22:48;13.50;;;10.33;;
14377;SDS011;7272;53.668;9.578;2023-04-21T01:25:51;12.47;;;9.97;;
14377;SDS011;7272;53.668;9.578;2023-04-21T01:28:55;12.40;;;9.73;;
14377;SDS011;7272;53.668;9.578;2023-04-21T01:31:56;10.03;;;9.00;;
14377;SDS011;7272;53.668;9.578;2023-04-21T01:34:58;14.93;;;10.90;;
14377;SDS011;7272;53.668;9.578;2023-04-21T01:38:00;11.20;;;9.77;;
14377;SDS011;7272;53.668;9.578;2023-04-21T01:41:01;11.13;;;9.23;;
14377;SDS011;7272;53.668;9.578;2023-04-21T01:44:03;12.53;;;9.73;;
14377;SDS011;7272;53.668;9.578;2023-04-21T01:47:04;11.30;;;9.07;;
14377;SDS011;7272;53.668;9.578;2023-04-21T01:50:06;15.73;;;10.33;;
14377;SDS011;7272;53.668;9.578;2023-04-21T01:53:09;9.93;;;8.93;;
14377;SDS011;7272;53.668;9.578;2023-04-21T01:56:12;12.07;;;10.07;;
14377;SDS011;7272;53.668;9.578;2023-04-21T01:59:13;12.40;;;10.10;;
14377;SDS011;7272;53.668;9.578;2023-04-21T02:02:14;12.30;;;10.90;;
14377;SDS011;7272;53.668;9.578;2023-04-21T02:05:16;11.83;;;9.47;;
14377;SDS011;7272;53.668;9.578;2023-04-21T02:08:18;11.00;;;9.23;;
14377;SDS011;7272;53.668;9.578;2023-04-21T02:11:19;10.50;;;9.40;;
14377;SDS011;7272;53.668;9.578;2023-04-21T02:14:20;12.00;;;9.40;;
14377;SDS011;7272;53.668;9.578;2023-04-21T02:17:21;10.23;;;9.17;;
14377;SDS011;7272;53.668;9.578;2023-04-21T02:20:23;9.33;;;8.40;;
14377;SDS011;7272;53.668;9.578;2023-04-21T02:23:25;11.40;;;10.20;;
14377;SDS011;7272;53.668;9.578;2023-04-21T02:26:28;11.93;;;9.77;;
14377;SDS011;7272;53.668;9.578;2023-04-21T02:29:29;10.73;;;8.93;;
14377;SDS011;7272;53.668;9.578;2023-04-21T02:32:30;10.63;;;9.57;;
14377;SDS011;7272;53.668;9.578;2023-04-21T02:35:31;9.93;;;8.93;;
14377;SDS011;7272;53.668;9.578;2023-04-21T02:38:34;12.87;;;9.83;;
14377;SDS011;7272;53.668;9.578;2023-04-21T02:41:35;11.67;;;9.77;;
14377;SDS011;7272;53.668;9.578;2023-04-21T02:44:36;11.73;;;9.33;;
14377;SDS011;7272;53.668;9.578;2023-04-21T02:47:38;11.67;;;8.93;;
14377;SDS011;7272;53.668;9.578;2023-04-21T02:50:39;9.97;;;8.87;;
14377;SDS011;7272;53.668;9.578;2023-04-21T02:53:42;12.37;;;9.67;;
14377;SDS011;7272;53.668;9.578;2023-04-21T02:56:43;10.63;;;9.30;;
14377;SDS011;7272;53.668;9.578;2023-04-21T02:59:46;11.35;;;10.25;;
14377;SDS011;7272;53.668;9.578;2023-04-21T03:02:47;10.47;;;8.87;;
14377;SDS011;7272;53.668;9.578;2023-04-21T03:05:54;10.33;;;9.13;;
14377;SDS011;7272;53.668;9.578;2023-04-21T03:08:57;9.20;;;8.30;;
14377;SDS011;7272;53.668;9.578;2023-04-21T03:12:00;9.43;;;8.40;;
14377;SDS011;7272;53.668;9.578;2023-04-21T03:15:02;8.73;;;7.83;;
14377;SDS011;7272;53.668;9.578;2023-04-21T03:18:05;9.77;;;8.67;;
14377;SDS011;7272;53.668;9.578;2023-04-21T03:21:06;10.67;;;8.53;;
14377;SDS011;7272;53.668;9.578;2023-04-21T03:24:08;12.97;;;8.93;;
14377;SDS011;7272;53.668;9.578;2023-04-21T03:27:09;8.97;;;8.03;;
14377;SDS011;7272;53.668;9.578;2023-04-21T03:30:10;9.20;;;8.30;;
14377;SDS011;7272;53.668;9.578;2023-04-21T03:33:12;9.73;;;8.67;;
14377;SDS011;7272;53.668;9.578;2023-04-21T03:36:14;9.60;;;8.53;;
14377;SDS011;7272;53.668;9.578;2023-04-21T03:39:15;8.80;;;7.90;;
14377;SDS011;7272;53.668;9.578;2023-04-21T03:42:17;11.47;;;8.43;;
14377;SDS011;7272;53.668;9.578;2023-04-21T03:45:18;10.83;;;8.80;;
14377;SDS011;7272;53.668;9.578;2023-04-21T03:48:21;9.37;;;8.43;;
14377;SDS011;7272;53.668;9.578;2023-04-21T03:51:23;9.10;;;8.10;;
14377;SDS011;7272;53.668;9.578;2023-04-21T03:54:25;11.03;;;8.27;;
14377;SDS011;7272;53.668;9.578;2023-04-21T03:57:30;10.50;;;8.57;;
14377;SDS011;7272;53.668;9.578;2023-04-21T04:00:31;12.40;;;9.07;;
14377;SDS011;7272;53.668;9.578;2023-04-21T04:03:32;9.33;;;8.43;;
14377;SDS011;7272;53.668;9.578;2023-04-21T04:06:33;11.83;;;8.50;;
14377;SDS011;7272;53.668;9.578;2023-04-21T04:09:35;14.33;;;8.40;;
14377;SDS011;7272;53.668;9.578;2023-04-21T04:12:37;10.35;;;9.35;;
14377;SDS011;7272;53.668;9.578;2023-04-21T04:15:38;9.30;;;8.40;;
14377;SDS011;7272;53.668;9.578;2023-04-21T04:18:39;9.37;;;8.40;;
14377;SDS011;7272;53.668;9.578;2023-04-21T04:21:40;9.73;;;8.73;;
14377;SDS011;7272;53.668;9.578;2023-04-21T04:24:42;10.60;;;8.43;;
14377;SDS011;7272;53.668;9.578;2023-04-21T04:27:44;9.83;;;8.13;;
14377;SDS011;7272;53.668;9.578;2023-04-21T04:30:45;8.43;;;7.63;;
14377;SDS011;7272;53.668;9.578;2023-04-21T04:33:47;10.13;;;8.37;;
14377;SDS011;7272;53.668;9.578;2023-04-21T04:36:49;9.00;;;8.07;;
14377;SDS011;7272;53.668;9.578;2023-04-21T04:39:52;9.97;;;8.20;;
14377;SDS011;7272;53.668;9.578;2023-04-21T04:42:53;8.87;;;7.97;;
14377;SDS011;7272;53.668;9.578;2023-04-21T04:45:54;8.93;;;8.07;;
14377;SDS011;7272;53.668;9.578;2023-04-21T04:48:56;9.43;;;8.50;;
14377;SDS011;7272;53.668;9.578;2023-04-21T04:51:57;8.17;;;7.30;;
14377;SDS011;7272;53.668;9.578;2023-04-21T04:54:59;9.60;;;8.60;;
14377;SDS011;7272;53.668;9.578;2023-04-21T04:58:01;8.63;;;7.77;;
14377;SDS011;7272;53.668;9.578;2023-04-21T05:01:09;9.70;;;7.40;;
14377;SDS011;7272;53.668;9.578;2023-04-21T05:04:12;9.07;;;8.23;;
14377;SDS011;7272;53.668;9.578;2023-04-21T05:07:15;9.07;;;8.17;;
14377;SDS011;7272;53.668;9.578;2023-04-21T05:10:17;8.70;;;7.90;;
14377;SDS011;7272;53.668;9.578;2023-04-21T05:13:19;9.27;;;8.37;;
14377;SDS011;7272;53.668;9.578;2023-04-21T05:16:22;9.60;;;7.60;;
14377;SDS011;7272;53.668;9.578;2023-04-21T05:19:24;10.63;;;9.13;;
14377;SDS011;7272;53.668;9.578;2023-04-21T05:22:25;9.00;;;8.00;;
14377;SDS011;7272;53.668;9.578;2023-04-21T05:25:27;10.15;;;8.80;;
14377;SDS011;7272;53.668;9.578;2023-04-21T05:28:29;9.50;;;8.53;;
14377;SDS011;7272;53.668;9.578;2023-04-21T05:31:31;9.73;;;8.17;;
14377;SDS011;7272;53.668;9.578;2023-04-21T05:34:32;8.70;;;7.90;;
14377;SDS011;7272;53.668;9.578;2023-04-21T05:37:34;9.90;;;8.20;;
14377;SDS011;7272;53.668;9.578;2023-04-21T05:40:36;9.00;;;8.07;;
14377;SDS011;7272;53.668;9.578;2023-04-21T05:43:37;11.00;;;7.20;;
14377;SDS011;7272;53.668;9.578;2023-04-21T05:46:38;9.23;;;7.43;;
14377;SDS011;7272;53.668;9.578;2023-04-21T05:49:39;8.13;;;7.33;;
14377;SDS011;7272;53.668;9.578;2023-04-21T05:52:41;8.53;;;7.63;;
14377;SDS011;7272;53.668;9.578;2023-04-21T05:55:43;8.33;;;7.20;;
14377;SDS011;7272;53.668;9.578;2023-04-21T05:58:44;9.20;;;8.07;;
14377;SDS011;7272;53.668;9.578;2023-04-21T06:01:45;8.53;;;7.73;;
14377;SDS011;7272;53.668;9.578;2023-04-21T06:04:47;8.20;;;7.47;;
14377;SDS011;7272;53.668;9.578;2023-04-21T06:07:48;9.10;;;8.23;;
14377;SDS011;7272;53.668;9.578;2023-04-21T06:10:50;8.67;;;7.87;;
14377;SDS011;7272;53.668;9.578;2023-04-21T06:13:51;9.37;;;7.70;;
14377;SDS011;7272;53.668;9.578;2023-04-21T06:16:57;8.37;;;7.33;;
14377;SDS011;7272;53.668;9.578;2023-04-21T06:19:58;8.80;;;7.90;;
14377;SDS011;7272;53.668;9.578;2023-04-21T06:23:00;7.90;;;7.10;;
14377;SDS011;7272;53.668;9.578;2023-04-21T06:26:03;9.50;;;7.67;;
14377;SDS011;7272;53.668;9.578;2023-04-21T06:29:05;8.80;;;7.90;;
14377;SDS011;7272;53.668;9.578;2023-04-21T06:32:07;7.90;;;7.17;;
14377;SDS011;7272;53.668;9.578;2023-04-21T06:35:08;9.73;;;7.80;;
14377;SDS011;7272;53.668;9.578;2023-04-21T06:38:10;9.67;;;8.67;;
14377;SDS011;7272;53.668;9.578;2023-04-21T06:41:11;9.63;;;8.10;;
14377;SDS011;7272;53.668;9.578;2023-04-21T06:44:13;8.73;;;7.93;;
14377;SDS011;7272;53.668;9.578;2023-04-21T06:47:14;8.40;;;7.60;;
14377;SDS011;7272;53.668;9.578;2023-04-21T06:50:16;12.47;;;7.80;;
14377;SDS011;7272;53.668;9.578;2023-04-21T06:53:17;9.27;;;7.63;;
14377;SDS011;7272;53.668;9.578;2023-04-21T06:56:21;7.20;;;6.50;;
14377;SDS011;7272;53.668;9.578;2023-04-21T06:59:22;7.73;;;6.93;;
14377;SDS011;7272;53.668;9.578;2023-04-21T07:02:23;8.60;;;7.30;;
14377;SDS011;7272;53.668;9.578;2023-04-21T07:05:25;8.37;;;6.97;;
14377;SDS011;7272;53.668;9.578;2023-04-21T07:08:26;8.30;;;7.50;;
14377;SDS011;7272;53.668;9.578;2023-04-21T07:11:28;8.17;;;7.37;;
14377;SDS011;7272;53.668;9.578;2023-04-21T07:14:29;7.80;;;7.10;;
14377;SDS011;7272;53.668;9.578;2023-04-21T07:17:31;8.20;;;6.97;;
14377;SDS011;7272;53.668;9.578;2023-04-21T07:20:32;8.43;;;7.57;;
14377;SDS011;7272;53.668;9.578;2023-04-21T07:23:33;7.83;;;7.03;;
14377;SDS011;7272;53.668;9.578;2023-04-21T07:26:35;11.90;;;7.40;;
14377;SDS011;7272;53.668;9.578;2023-04-21T07:29:36;6.87;;;6.17;;
14377;SDS011;7272;53.668;9.578;2023-04-21T07:32:38;7.57;;;6.80;;
14377;SDS011;7272;53.668;9.578;2023-04-21T07:35:39;7.50;;;6.80;;
14377;SDS011;7272;53.668;9.578;2023-04-21T07:38:41;8.07;;;6.83;;
14377;SDS011;7272;53.668;9.578;2023-04-21T07:41:43;7.97;;;6.60;;
14377;SDS011;7272;53.668;9.578;2023-04-21T07:44:44;8.00;;;7.20;;
14377;SDS011;7272;53.668;9.578;2023-04-21T07:47:46;8.10;;;7.30;;
14377;SDS011;7272;53.668;9.578;2023-04-21T07:50:47;8.07;;;7.28;;
14377;SDS011;7272;53.668;9.578;2023-04-21T07:53:49;7.27;;;6.57;;
14377;SDS011;7272;53.668;9.578;2023-04-21T07:56:51;7.33;;;6.63;;
14377;SDS011;7272;53.668;9.578;2023-04-21T07:59:52;7.80;;;7.10;;
14377;SDS011;7272;53.668;9.578;2023-04-21T08:02:54;7.80;;;7.10;;
14377;SDS011;7272;53.668;9.578;2023-04-21T08:05:55;7.50;;;6.73;;
14377;SDS011;7272;53.668;9.578;2023-04-21T08:08:56;9.57;;;6.57;;
14377;SDS011;7272;53.668;9.578;2023-04-21T08:11:58;9.20;;;6.13;;
14377;SDS011;7272;53.668;9.578;2023-04-21T08:15:01;8.77;;;7.43;;
14377;SDS011;7272;53.668;9.578;2023-04-21T08:18:07;7.30;;;6.50;;
14377;SDS011;7272;53.668;9.578;2023-04-21T08:21:08;7.47;;;6.77;;
14377;SDS011;7272;53.668;9.578;2023-04-21T08:24:09;6.90;;;6.30;;
14377;SDS011;7272;53.668;9.578;2023-04-21T08:27:12;9.20;;;6.40;;
14377;SDS011;7272;53.668;9.578;2023-04-21T08:30:16;7.73;;;6.37;;
14377;SDS011;7272;53.668;9.578;2023-04-21T08:33:18;7.80;;;6.40;;
14377;SDS011;7272;53.668;9.578;2023-04-21T08:36:19;7.27;;;6.57;;
14377;SDS011;7272;53.668;9.578;2023-04-21T08:39:20;7.47;;;6.50;;
14377;SDS011;7272;53.668;9.578;2023-04-21T08:42:22;7.20;;;6.50;;
14377;SDS011;7272;53.668;9.578;2023-04-21T08:45:24;7.77;;;7.07;;
14377;SDS011;7272;53.668;9.578;2023-04-21T08:48:27;7.05;;;6.38;;
14377;SDS011;7272;53.668;9.578;2023-04-21T08:51:30;6.77;;;6.10;;
14377;SDS011;7272;53.668;9.578;2023-04-21T08:54:32;7.93;;;7.13;;
14377;SDS011;7272;53.668;9.578;2023-04-21T08:57:34;7.20;;;6.30;;
14377;SDS011;7272;53.668;9.578;2023-04-21T09:00:35;7.30;;;6.60;;
14377;SDS011;7272;53.668;9.578;2023-04-21T09:03:36;8.43;;;6.07;;
14377;SDS011;7272;53.668;9.578;2023-04-21T09:06:39;6.70;;;6.10;;
14377;SDS011;7272;53.668;9.578;2023-04-21T09:09:51;7.13;;;6.43;;
14377;SDS011;7272;53.668;9.578;2023-04-21T09:12:54;6.70;;;6.10;;
14377;SDS011;7272;53.668;9.578;2023-04-21T09:15:55;6.53;;;5.90;;
14377;SDS011;7272;53.668;9.578;2023-04-21T09:18:56;7.40;;;6.70;;
14377;SDS011;7272;53.668;9.578;2023-04-21T09:22:00;7.03;;;6.33;;
14377;SDS011;7272;53.668;9.578;2023-04-21T09:25:02;6.90;;;5.97;;
14377;SDS011;7272;53.668;9.578;2023-04-21T09:28:06;7.23;;;6.53;;
14377;SDS011;7272;53.668;9.578;2023-04-21T09:31:15;7.70;;;7.00;;
14377;SDS011;7272;53.668;9.578;2023-04-21T09:34:19;7.55;;;6.93;;
14377;SDS011;7272;53.668;9.578;2023-04-21T09:37:23;7.00;;;6.27;;
14377;SDS011;7272;53.668;9.578;2023-04-21T09:40:25;8.10;;;6.43;;
14377;SDS011;7272;53.668;9.578;2023-04-21T09:43:28;8.30;;;6.50;;
14377;SDS011;7272;53.668;9.578;2023-04-21T09:46:31;6.50;;;5.90;;
14377;SDS011;7272;53.668;9.578;2023-04-21T09:49:35;6.87;;;6.27;;
14377;SDS011;7272;53.668;9.578;2023-04-21T09:52:39;6.43;;;5.83;;
14377;SDS011;7272;53.668;9.578;2023-04-21T09:55:43;6.50;;;5.93;;
14377;SDS011;7272;53.668;9.578;2023-04-21T09:58:50;6.63;;;5.93;;
14377;SDS011;7272;53.668;9.578;2023-04-21T10:01:53;8.27;;;6.33;;
14377;SDS011;7272;53.668;9.578;2023-04-21T10:04:56;6.83;;;6.23;;
14377;SDS011;7272;53.668;9.578;2023-04-21T10:07:58;7.37;;;6.67;;
14377;SDS011;7272;53.668;9.578;2023-04-21T10:10:59;8.40;;;6.93;;
14377;SDS011;7272;53.668;9.578;2023-04-21T10:14:02;7.30;;;6.60;;
14377;SDS011;7272;53.668;9.578;2023-04-21T10:17:04;8.60;;;6.60;;
14377;SDS011;7272;53.668;9.578;2023-04-21T10:20:07;7.70;;;6.90;;
14377;SDS011;7272;53.668;9.578;2023-04-21T10:23:09;7.10;;;6.40;;
14377;SDS011;7272;53.668;9.578;2023-04-21T10:26:11;7.23;;;6.63;;
14377;SDS011;7272;53.668;9.578;2023-04-21T10:29:15;6.33;;;5.83;;
14377;SDS011;7272;53.668;9.578;2023-04-21T10:32:30;6.50;;;5.93;;
14377;SDS011;7272;53.668;9.578;2023-04-21T10:38:59;6.53;;;6.03;;
14377;SDS011;7272;53.668;9.578;2023-04-21T10:45:27;6.85;;;6.25;;
14377;SDS011;7272;53.668;9.578;2023-04-21T10:48:28;6.53;;;5.93;;
14377;SDS011;7272;53.668;9.578;2023-04-21T10:51:29;6.97;;;6.37;;
14377;SDS011;7272;53.668;9.578;2023-04-21T10:54:35;6.03;;;5.53;;
14377;SDS011;7272;53.668;9.578;2023-04-21T10:57:53;6.83;;;6.23;;
14377;SDS011;7272;53.668;9.578;2023-04-21T11:00:55;7.00;;;6.27;;
14377;SDS011;7272;53.668;9.578;2023-04-21T11:03:58;6.60;;;5.97;;
14377;SDS011;7272;53.668;9.578;2023-04-21T11:07:06;6.57;;;5.77;;
14377;SDS011;7272;53.668;9.578;2023-04-21T11:10:08;6.70;;;6.10;;
14377;SDS011;7272;53.668;9.578;2023-04-21T11:13:10;6.93;;;6.20;;
14377;SDS011;7272;53.668;9.578;2023-04-21T11:16:12;7.30;;;6.47;;
14377;SDS011;7272;53.668;9.578;2023-04-21T11:19:14;7.22;;;6.55;;
14377;SDS011;7272;53.668;9.578;2023-04-21T11:22:15;7.05;;;6.45;;
14377;SDS011;7272;53.668;9.578;2023-04-21T11:25:16;6.27;;;5.47;;
14377;SDS011;7272;53.668;9.578;2023-04-21T11:28:19;6.53;;;5.93;;
14377;SDS011;7272;53.668;9.578;2023-04-21T11:31:22;6.60;;;5.90;;
14377;SDS011;7272;53.668;9.578;2023-04-21T11:34:28;6.73;;;6.03;;
14377;SDS011;7272;53.668;9.578;2023-04-21T11:37:29;6.93;;;5.90;;
14377;SDS011;7272;53.668;9.578;2023-04-21T11:40:42;7.00;;;6.27;;
14377;SDS011;7272;53.668;9.578;2023-04-21T11:43:45;5.90;;;5.40;;
14377;SDS011;7272;53.668;9.578;2023-04-21T11:46:47;6.55;;;6.00;;
14377;SDS011;7272;53.668;9.578;2023-04-21T11:49:51;6.70;;;6.00;;
14377;SDS011;7272;53.668;9.578;2023-04-21T11:52:54;6.60;;;6.00;;
14377;SDS011;7272;53.668;9.578;2023-04-21T11:55:55;6.17;;;5.67;;
14377;SDS011;7272;53.668;9.578;2023-04-21T11:58:57;8.37;;;6.57;;
14377;SDS011;7272;53.668;9.578;2023-04-21T12:01:59;7.23;;;6.40;;
14377;SDS011;7272;53.668;9.578;2023-04-21T12:05:01;7.13;;;6.20;;
14377;SDS011;7272;53.668;9.578;2023-04-21T12:08:04;6.90;;;6.27;;
14377;SDS011;7272;53.668;9.578;2023-04-21T12:11:05;6.43;;;5.83;;
14377;SDS011;7272;53.668;9.578;2023-04-21T12:14:06;7.17;;;6.53;;
14377;SDS011;7272;53.668;9.578;2023-04-21T12:17:08;6.90;;;6.30;;
14377;SDS011;7272;53.668;9.578;2023-04-21T12:20:10;8.53;;;6.13;;
14377;SDS011;7272;53.668;9.578;2023-04-21T12:23:14;6.07;;;5.23;;
14377;SDS011;7272;53.668;9.578;2023-04-21T12:26:16;9.40;;;6.70;;
14377;SDS011;7272;53.668;9.578;2023-04-21T12:29:17;6.97;;;6.10;;
14377;SDS011;7272;53.668;9.578;2023-04-21T12:32:19;6.53;;;5.93;;
14377;SDS011;7272;53.668;9.578;2023-04-21T12:35:21;6.45;;;5.82;;
14377;SDS011;7272;53.668;9.578;2023-04-21T12:38:23;6.83;;;6.13;;
14377;SDS011;7272;53.668;9.578;2023-04-21T12:41:24;6.97;;;6.27;;
14377;SDS011;7272;53.668;9.578;2023-04-21T12:44:25;6.57;;;6.00;;
14377;SDS011;7272;53.668;9.578;2023-04-21T12:47:27;6.33;;;5.73;;
14377;SDS011;7272;53.668;9.578;2023-04-21T12:50:29;6.47;;;5.80;;
14377;SDS011;7272;53.668;9.578;2023-04-21T12:53:30;6.60;;;5.93;;
14377;SDS011;7272;53.668;9.578;2023-04-21T12:56:32;7.07;;;6.40;;
14377;SDS011;7272;53.668;9.578;2023-04-21T12:59:33;6.13;;;5.53;;
14377;SDS011;7272;53.668;9.578;2023-04-21T13:02:35;7.10;;;6.10;;
14377;SDS011;7272;53.668;9.578;2023-04-21T13:05:37;6.13;;;5.57;;
14377;SDS011;7272;53.668;9.578;2023-04-21T13:08:38;6.30;;;5.70;;
14377;SDS011;7272;53.668;9.578;2023-04-21T13:11:39;6.63;;;6.03;;
14377;SDS011;7272;53.668;9.578;2023-04-21T13:14:40;8.27;;;5.93;;
14377;SDS011;7272;53.668;9.578;2023-04-21T13:17:42;6.53;;;5.60;;
14377;SDS011;7272;53.668;9.578;2023-04-21T13:20:43;6.80;;;6.10;;
14377;SDS011;7272;53.668;9.578;2023-04-21T13:23:45;6.78;;;6.18;;
14377;SDS011;7272;53.668;9.578;2023-04-21T13:26:46;6.17;;;5.57;;
14377;SDS011;7272;53.668;9.578;2023-04-21T13:29:47;6.70;;;6.00;;
14377;SDS011;7272;53.668;9.578;2023-04-21T13:32:49;6.20;;;5.60;;
14377;SDS011;7272;53.668;9.578;2023-04-21T13:35:50;6.23;;;5.67;;
14377;SDS011;7272;53.668;9.578;2023-04-21T13:38:52;5.97;;;5.47;;
14377;SDS011;7272;53.668;9.578;2023-04-21T13:41:55;7.30;;;6.60;;
14377;SDS011;7272;53.668;9.578;2023-04-21T13:44:56;6.53;;;5.90;;
14377;SDS011;7272;53.668;9.578;2023-04-21T13:47:58;6.50;;;5.73;;
14377;SDS011;7272;53.668;9.578;2023-04-21T13:50:59;7.70;;;6.00;;
14377;SDS011;7272;53.668;9.578;2023-04-21T13:54:01;6.63;;;5.93;;
14377;SDS011;7272;53.668;9.578;2023-04-21T13:57:02;6.43;;;5.83;;
14377;SDS011;7272;53.668;9.578;2023-04-21T14:00:03;6.47;;;5.88;;
14377;SDS011;7272;53.668;9.578;2023-04-21T14:03:06;7.80;;;5.90;;
14377;SDS011;7272;53.668;9.578;2023-04-21T14:06:08;7.07;;;6.10;;
14377;SDS011;7272;53.668;9.578;2023-04-21T14:09:09;6.63;;;5.43;;
14377;SDS011;7272;53.668;9.578;2023-04-21T14:12:11;6.03;;;5.43;;
14377;SDS011;7272;53.668;9.578;2023-04-21T14:15:12;5.73;;;5.17;;
14377;SDS011;7272;53.668;9.578;2023-04-21T14:18:14;6.28;;;5.70;;
14377;SDS011;7272;53.668;9.578;2023-04-21T14:21:15;5.83;;;5.23;;
14377;SDS011;7272;53.668;9.578;2023-04-21T14:24:16;5.90;;;5.40;;
14377;SDS011;7272;53.668;9.578;2023-04-21T14:27:17;5.57;;;4.90;;
14377;SDS011;7272;53.668;9.578;2023-04-21T14:30:19;5.63;;;5.13;;
14377;SDS011;7272;53.668;9.578;2023-04-21T14:33:21;8.37;;;5.70;;
14377;SDS011;7272;53.668;9.578;2023-04-21T14:36:22;5.70;;;5.20;;
14377;SDS011;7272;53.668;9.578;2023-04-21T14:39:23;8.33;;;5.90;;
14377;SDS011;7272;53.668;9.578;2023-04-21T14:42:24;6.00;;;5.40;;
14377;SDS011;7272;53.668;9.578;2023-04-21T14:45:25;5.90;;;5.23;;
14377;SDS011;7272;53.668;9.578;2023-04-21T14:48:27;6.67;;;5.97;;
14377;SDS011;7272;53.668;9.578;2023-04-21T14:51:29;7.57;;;5.10;;
14377;SDS011;7272;53.668;9.578;2023-04-21T14:54:31;6.60;;;6.00;;
14377;SDS011;7272;53.668;9.578;2023-04-21T14:57:32;6.73;;;5.63;;
14377;SDS011;7272;53.668;9.578;2023-04-21T15:00:33;5.60;;;5.10;;
14377;SDS011;7272;53.668;9.578;2023-04-21T15:03:36;7.73;;;5.00;;
14377;SDS011;7272;53.668;9.578;2023-04-21T15:06:37;9.33;;;5.50;;
14377;SDS011;7272;53.668;9.578;2023-04-21T15:09:38;5.97;;;5.47;;
14377;SDS011;7272;53.668;9.578;2023-04-21T15:12:42;11.07;;;5.97;;
14377;SDS011;7272;53.668;9.578;2023-04-21T15:15:43;6.17;;;5.57;;
14377;SDS011;7272;53.668;9.578;2023-04-21T15:18:45;5.72;;;5.22;;
14377;SDS011;7272;53.668;9.578;2023-04-21T15:21:46;6.10;;;5.60;;
14377;SDS011;7272;53.668;9.578;2023-04-21T15:24:48;6.03;;;5.43;;
14377;SDS011;7272;53.668;9.578;2023-04-21T15:27:49;5.73;;;5.17;;
14377;SDS011;7272;53.668;9.578;2023-04-21T15:30:50;5.90;;;5.30;;
14377;SDS011;7272;53.668;9.578;2023-04-21T15:33:52;6.13;;;5.53;;
14377;SDS011;7272;53.668;9.578;2023-04-21T15:36:53;6.55;;;5.80;;
14377;SDS011;7272;53.668;9.578;2023-04-21T15:39:55;5.43;;;4.97;;
14377;SDS011;7272;53.668;9.578;2023-04-21T15:42:56;7.43;;;5.63;;
14377;SDS011;7272;53.668;9.578;2023-04-21T15:45:57;5.63;;;5.13;;
14377;SDS011;7272;53.668;9.578;2023-04-21T15:48:59;5.43;;;4.87;;
14377;SDS011;7272;53.668;9.578;2023-04-21T15:52:00;9.77;;;6.20;;
14377;SDS011;7272;53.668;9.578;2023-04-21T15:55:03;5.60;;;5.10;;
14377;SDS011;7272;53.668;9.578;2023-04-21T15:58:05;7.30;;;5.47;;
14377;SDS011;7272;53.668;9.578;2023-04-21T16:01:06;5.83;;;4.90;;
14377;SDS011;7272;53.668;9.578;2023-04-21T16:04:09;5.67;;;5.17;;
14377;SDS011;7272;53.668;9.578;2023-04-21T16:07:10;6.07;;;5.57;;
14377;SDS011;7272;53.668;9.578;2023-04-21T16:10:11;6.68;;;6.07;;
14377;SDS011;7272;53.668;9.578;2023-04-21T16:13:12;6.38;;;5.78;;
14377;SDS011;7272;53.668;9.578;2023-04-21T16:16:14;7.47;;;5.90;;
14377;SDS011;7272;53.668;9.578;2023-04-21T16:19:16;5.83;;;5.30;;
14377;SDS011;7272;53.668;9.578;2023-04-21T16:22:17;6.47;;;5.00;;
14377;SDS011;7272;53.668;9.578;2023-04-21T16:25:19;5.47;;;4.97;;
14377;SDS011;7272;53.668;9.578;2023-04-21T16:28:20;5.43;;;5.03;;
14377;SDS011;7272;53.668;9.578;2023-04-21T16:31:21;5.70;;;5.13;;
14377;SDS011;7272;53.668;9.578;2023-04-21T16:34:23;5.70;;;5.20;;
14377;SDS011;7272;53.668;9.578;2023-04-21T16:37:25;5.00;;;4.60;;
14377;SDS011;7272;53.668;9.578;2023-04-21T16:40:26;6.03;;;4.70;;
14377;SDS011;7272;53.668;9.578;2023-04-21T16:43:27;6.70;;;5.27;;
14377;SDS011;7272;53.668;9.578;2023-04-21T16:46:29;5.40;;;4.90;;
14377;SDS011;7272;53.668;9.578;2023-04-21T16:49:30;5.88;;;5.38;;
14377;SDS011;7272;53.668;9.578;2023-04-21T16:52:32;5.72;;;5.13;;
14377;SDS011;7272;53.668;9.578;2023-04-21T16:55:33;5.00;;;4.50;;
14377;SDS011;7272;53.668;9.578;2023-04-21T16:58:34;7.03;;;4.93;;
14377;SDS011;7272;53.668;9.578;2023-04-21T17:01:36;7.30;;;4.80;;
14377;SDS011;7272;53.668;9.578;2023-04-21T17:04:38;4.80;;;4.43;;
14377;SDS011;7272;53.668;9.578;2023-04-21T17:07:39;5.70;;;5.17;;
14377;SDS011;7272;53.668;9.578;2023-04-21T17:10:41;6.20;;;5.57;;
14377;SDS011;7272;53.668;9.578;2023-04-21T17:13:42;5.80;;;5.20;;
14377;SDS011;7272;53.668;9.578;2023-04-21T17:16:43;7.80;;;5.40;;
14377;SDS011;7272;53.668;9.578;2023-04-21T17:19:45;6.00;;;5.20;;
14377;SDS011;7272;53.668;9.578;2023-04-21T17:22:47;6.93;;;5.00;;
14377;SDS011;7272;53.668;9.578;2023-04-21T17:25:48;5.20;;;4.73;;
14377;SDS011;7272;53.668;9.578;2023-04-21T17:28:49;5.10;;;4.60;;
14377;SDS011;7272;53.668;9.578;2023-04-21T17:31:50;6.00;;;5.40;;
14377;SDS011;7272;53.668;9.578;2023-04-21T17:34:52;6.72;;;5.97;;
14377;SDS011;7272;53.668;9.578;2023-04-21T17:37:53;5.23;;;4.73;;
14377;SDS011;7272;53.668;9.578;2023-04-21T17:40:54;6.70;;;5.00;;
14377;SDS011;7272;53.668;9.578;2023-04-21T17:43:56;6.47;;;5.07;;
14377;SDS011;7272;53.668;9.578;2023-04-21T17:46:57;5.83;;;5.00;;
14377;SDS011;7272;53.668;9.578;2023-04-21T17:49:59;5.70;;;5.03;;
14377;SDS011;7272;53.668;9.578;2023-04-21T17:53:00;5.57;;;4.60;;
14377;SDS011;7272;53.668;9.578;2023-04-21T17:56:01;5.93;;;5.15;;
14377;SDS011;7272;53.668;9.578;2023-04-21T17:59:02;4.83;;;4.37;;
14377;SDS011;7272;53.668;9.578;2023-04-21T18:02:03;6.03;;;4.60;;
14377;SDS011;7272;53.668;9.578;2023-04-21T18:05:06;5.07;;;4.23;;
14377;SDS011;7272;53.668;9.578;2023-04-21T18:08:07;5.30;;;4.77;;
14377;SDS011;7272;53.668;9.578;2023-04-21T18:11:08;4.90;;;4.50;;
14377;SDS011;7272;53.668;9.578;2023-04-21T18:14:11;5.50;;;5.00;;
14377;SDS011;7272;53.668;9.578;2023-04-21T18:17:12;4.90;;;4.40;;
14377;SDS011;7272;53.668;9.578;2023-04-21T18:20:14;6.07;;;4.83;;
14377;SDS011;7272;53.668;9.578;2023-04-21T18:23:16;5.07;;;4.57;;
14377;SDS011;7272;53.668;9.578;2023-04-21T18:26:17;6.87;;;4.47;;
14377;SDS011;7272;53.668;9.578;2023-04-21T18:29:18;6.03;;;4.23;;
14377;SDS011;7272;53.668;9.578;2023-04-21T18:32:19;6.23;;;4.50;;
14377;SDS011;7272;53.668;9.578;2023-04-21T18:35:21;5.93;;;5.33;;